Time;durP1;ratioP1;P1;durP2;ratioP2;P2;SDS_P1;SDS_P2;PMS_P1;PMS_P2;Temp;Humidity;BMP_temperature;BMP_pressure;BME280_temperature;BME280_humidity;BME280_pressure;Samples;Min_cycle;Max_cycle;Signal;HPM_P1;HPM_P2
2023/11/12 00:00:42;;;;;;;3.17;2.80;;;;;;;9.27;56.89;96687.13;5049505;28;20209;-72
2023/11/12 00:03:07;;;;;;;3.13;2.10;;;;;;;9.29;56.73;96684.34;5046361;28;20746;-72
2023/11/12 00:05:33;;;;;;;2.37;2.17;;;;;;;9.34;56.50;96682.88;5047322;28;20454;-72
2023/11/12 00:07:58;;;;;;;3.13;2.07;;;;;;;9.34;56.07;96677.66;5044799;28;20313;-72
2023/11/12 00:10:24;;;;;;;2.67;2.40;;;;;;;9.42;56.17;96676.06;5044544;28;20784;-72
2023/11/12 00:12:49;;;;;;;2.80;2.50;;;;;;;9.40;56.14;96668.38;5047015;28;20187;-73
2023/11/12 00:15:14;;;;;;;3.47;2.23;;;;;;;9.43;56.38;96673.28;5040073;28;20178;-73
2023/11/12 00:17:42;;;;;;;2.50;2.30;;;;;;;9.45;56.05;96666.09;5046979;28;20604;-72
2023/11/12 00:20:12;;;;;;;3.20;2.10;;;;;;;9.47;56.00;96671.16;5041185;28;20202;-74
2023/11/12 00:22:41;;;;;;;2.20;2.00;;;;;;;9.44;56.13;96672.31;5045919;28;20445;-73
2023/11/12 00:25:10;;;;;;;2.70;2.27;;;;;;;9.44;56.14;96668.91;5048289;28;20469;-73
2023/11/12 00:27:36;;;;;;;2.30;1.93;;;;;;;9.46;56.27;96656.44;5040865;28;20418;-72
2023/11/12 00:30:02;;;;;;;2.00;1.90;;;;;;;9.39;56.38;96658.88;5009254;28;21041;-73
2023/11/12 00:32:28;;;;;;;2.80;2.27;;;;;;;9.42;56.49;96663.00;5028397;28;20456;-72
2023/11/12 00:34:54;;;;;;;2.87;1.93;;;;;;;9.46;56.50;96661.69;5046282;28;20848;-71
2023/11/12 00:37:19;;;;;;;2.10;1.90;;;;;;;9.48;56.14;96652.72;5045126;28;20206;-71
2023/11/12 00:39:45;;;;;;;2.80;2.00;;;;;;;9.54;55.93;96653.88;5047474;28;20199;-72
2023/11/12 00:42:10;;;;;;;2.40;1.80;;;;;;;9.51;56.44;96652.38;5046883;28;20648;-73
2023/11/12 00:44:37;;;;;;;2.30;2.00;;;;;;;9.53;56.25;96647.81;5046384;28;20218;-72
2023/11/12 00:47:03;;;;;;;2.67;1.77;;;;;;;9.62;55.92;96650.47;5041142;28;20189;-73
2023/11/12 00:49:28;;;;;;;3.27;1.63;;;;;;;9.63;56.29;96637.22;5045891;28;20540;-72
2023/11/12 00:51:54;;;;;;;2.23;1.90;;;;;;;9.68;56.35;96634.13;5040292;28;20207;-73
2023/11/12 00:54:19;;;;;;;2.23;1.97;;;;;;;9.68;56.18;96632.34;5045408;28;20202;-71
2023/11/12 00:56:45;;;;;;;3.93;1.40;;;;;;;9.70;56.30;96631.34;5048230;28;20175;-72
2023/11/12 00:59:10;;;;;;;1.90;1.70;;;;;;;9.76;56.09;96621.06;5045477;28;20620;-72
2023/11/12 01:01:35;;;;;;;4.60;1.70;;;;;;;9.78;56.32;96623.50;5049268;28;20187;-72
2023/11/12 01:04:01;;;;;;;2.20;1.97;;;;;;;9.80;56.07;96629.41;5049705;28;20268;-72
2023/11/12 01:06:26;;;;;;;2.00;1.90;;;;;;;9.77;55.94;96621.88;5046415;28;20176;-73
2023/11/12 01:08:52;;;;;;;2.23;1.73;;;;;;;9.80;56.33;96627.59;5041585;28;20675;-71
2023/11/12 01:11:17;;;;;;;2.83;2.10;;;;;;;9.78;55.95;96620.91;5030290;28;20237;-72
2023/11/12 01:13:43;;;;;;;2.43;1.80;;;;;;;9.74;55.97;96624.81;5050678;28;20175;-72
2023/11/12 01:16:08;;;;;;;1.77;1.63;;;;;;;9.81;56.13;96625.81;5049630;28;20187;-72
2023/11/12 01:18:35;;;;;;;2.83;1.70;;;;;;;9.82;56.10;96620.41;5048750;28;20175;-71
2023/11/12 01:21:04;;;;;;;3.87;1.60;;;;;;;9.85;55.97;96624.50;5032562;28;20731;-72
2023/11/12 01:23:30;;;;;;;2.13;1.63;;;;;;;9.82;55.61;96624.84;5049045;28;20431;-72
2023/11/12 01:25:55;;;;;;;2.00;1.90;;;;;;;9.86;55.72;96627.94;5048913;28;20536;-73
2023/11/12 01:28:21;;;;;;;2.40;1.57;;;;;;;9.85;55.96;96621.88;5049482;28;20198;-72
2023/11/12 01:30:46;;;;;;;2.80;1.60;;;;;;;9.89;55.78;96619.78;5047254;28;20203;-71
2023/11/12 01:33:11;;;;;;;2.33;1.77;;;;;;;9.89;55.39;96615.34;5049740;28;20237;-71
2023/11/12 01:35:37;;;;;;;1.47;1.30;;;;;;;9.89;55.65;96610.09;5048983;28;20210;-71
2023/11/12 01:38:02;;;;;;;2.67;1.50;;;;;;;9.87;55.51;96606.81;5048850;28;20286;-71
2023/11/12 01:40:28;;;;;;;2.17;1.97;;;;;;;9.89;55.58;96602.25;5047453;28;20252;-71
2023/11/12 01:42:53;;;;;;;1.20;1.10;;;;;;;9.84;55.90;96605.38;5049961;28;20203;-74
2023/11/12 01:45:19;;;;;;;1.77;1.40;;;;;;;9.89;55.81;96607.50;5043669;28;20195;-71
2023/11/12 01:47:45;;;;;;;1.33;1.23;;;;;;;9.87;55.54;96601.59;5049804;28;20175;-71
2023/11/12 01:50:14;;;;;;;1.73;1.33;;;;;;;9.87;55.61;96606.03;5041107;28;20207;-72
2023/11/12 01:52:40;;;;;;;1.70;1.50;;;;;;;9.91;55.58;96605.53;5039873;28;20548;-71
2023/11/12 01:55:07;;;;;;;2.00;1.70;;;;;;;9.94;55.40;96605.22;5049245;28;20417;-73
2023/11/12 01:57:34;;;;;;;2.43;1.60;;;;;;;9.96;55.29;96592.75;5040954;28;20260;-72
2023/11/12 02:00:00;;;;;;;5.27;1.70;;;;;;;9.98;55.06;96598.66;5049512;28;20445;-72
2023/11/12 02:02:28;;;;;;;1.40;1.30;;;;;;;10.01;55.27;96599.31;5047636;28;20454;-71
2023/11/12 02:04:54;;;;;;;2.53;1.40;;;;;;;9.96;55.35;96592.75;5032247;28;20660;-72
2023/11/12 02:07:21;;;;;;;2.13;1.50;;;;;;;10.00;55.31;96595.88;5025378;28;20430;-71
2023/11/12 02:09:47;;;;;;;3.83;1.60;;;;;;;9.99;55.26;96589.81;5028552;28;20259;-72
2023/11/12 02:12:13;;;;;;;2.57;1.40;;;;;;;9.99;55.53;96589.00;5041501;28;20426;-72
2023/11/12 02:14:38;;;;;;;3.63;1.50;;;;;;;9.97;55.31;96593.59;5043935;28;20482;-72
2023/11/12 02:17:04;;;;;;;5.00;1.40;;;;;;;9.95;55.43;96596.38;5020595;28;20210;-72
2023/11/12 02:19:29;;;;;;;1.60;1.20;;;;;;;9.99;55.14;96584.59;5048459;28;20593;-73
2023/11/12 02:21:56;;;;;;;1.80;1.40;;;;;;;9.94;55.86;96580.81;5047734;28;20175;-73
2023/11/12 02:24:24;;;;;;;1.70;1.43;;;;;;;9.98;55.45;96577.72;5049370;28;20211;-71
2023/11/12 02:26:51;;;;;;;1.60;1.33;;;;;;;10.05;55.17;96577.88;5049326;28;20796;-72
2023/11/12 02:29:16;;;;;;;3.37;1.10;;;;;;;10.06;55.30;96576.09;5041840;28;20449;-72
2023/11/12 02:31:42;;;;;;;1.50;1.20;;;;;;;10.07;55.46;96572.50;5042445;28;20418;-72
2023/11/12 02:34:08;;;;;;;3.03;1.30;;;;;;;10.08;55.54;96568.91;5041488;28;20175;-72
2023/11/12 02:36:33;;;;;;;4.17;1.40;;;;;;;10.10;55.21;96556.44;5048702;28;20425;-71
2023/11/12 02:38:59;;;;;;;2.17;1.40;;;;;;;10.07;55.52;96554.16;5043472;28;20550;-72
2023/11/12 02:41:24;;;;;;;2.13;1.73;;;;;;;10.04;56.03;96546.63;5045118;28;20206;-72
2023/11/12 02:43:50;;;;;;;2.50;1.50;;;;;;;10.02;56.10;96538.13;5043018;28;20206;-72
2023/11/12 02:46:16;;;;;;;2.40;1.63;;;;;;;9.98;56.38;96541.06;5045264;28;20183;-73
2023/11/12 02:49:18;;;;;;;2.30;1.70;;;;;;;9.93;56.38;96532.91;5049122;28;20541;-73
2023/11/12 02:51:45;;;;;;;1.80;1.70;;;;;;;9.80;56.79;96524.72;5040564;28;20183;-73
2023/11/12 02:54:10;;;;;;;5.27;1.83;;;;;;;9.72;56.75;96524.72;5049299;28;20963;-71
2023/11/12 02:56:36;;;;;;;3.73;1.90;;;;;;;9.60;56.81;96519.81;5048446;28;20418;-73
2023/11/12 02:59:01;;;;;;;2.27;1.57;;;;;;;9.57;56.95;96514.91;5048129;28;20210;-72
2023/11/12 03:01:27;;;;;;;7.33;1.80;;;;;;;9.58;56.99;96516.53;5046888;28;20276;-71
2023/11/12 03:03:52;;;;;;;2.07;1.57;;;;;;;9.55;57.08;96516.88;5027384;28;20214;-73
2023/11/12 03:06:17;;;;;;;1.97;1.53;;;;;;;9.45;56.63;96518.84;5048734;28;20685;-72
2023/11/12 03:08:44;;;;;;;2.40;1.37;;;;;;;9.43;57.00;96513.75;5048366;28;20262;-73
2023/11/12 03:11:09;;;;;;;3.73;1.43;;;;;;;9.36;56.88;96502.31;5048173;28;20215;-72
2023/11/12 03:13:35;;;;;;;1.43;1.33;;;;;;;9.38;56.93;96498.53;5048455;28;20432;-72
2023/11/12 03:16:00;;;;;;;2.10;1.53;;;;;;;9.33;57.08;96490.34;5048472;28;20258;-71
2023/11/12 03:18:26;;;;;;;1.60;1.50;;;;;;;9.28;56.49;96497.88;5043976;28;20211;-72
2023/11/12 03:20:51;;;;;;;4.40;1.70;;;;;;;9.20;56.76;96493.44;5044215;28;20203;-73
2023/11/12 03:23:18;;;;;;;2.70;2.00;;;;;;;9.04;56.83;96488.19;5045662;28;20187;-72
2023/11/12 03:25:44;;;;;;;2.57;1.70;;;;;;;9.00;56.87;96490.31;5038198;28;20311;-72
2023/11/12 03:28:09;;;;;;;2.47;1.57;;;;;;;9.10;57.24;96484.94;5044512;28;21149;-72
2023/11/12 03:30:37;;;;;;;10.53;2.83;;;;;;;9.04;57.61;96490.81;5047435;28;20206;-71
2023/11/12 03:33:02;;;;;;;1.53;1.43;;;;;;;9.11;56.86;96485.75;5042505;28;20175;-71
2023/11/12 03:35:29;;;;;;;4.27;1.70;;;;;;;9.12;56.54;96482.16;5044363;28;21119;-71
2023/11/12 03:37:54;;;;;;;2.13;1.60;;;;;;;9.10;56.47;96482.31;5047860;28;20531;-73
2023/11/12 03:40:19;;;;;;;2.00;1.60;;;;;;;8.99;56.51;96482.63;5042832;28;20499;-71
2023/11/12 03:42:45;;;;;;;2.23;1.77;;;;;;;8.92;56.75;96482.44;5042920;28;20183;-72
2023/11/12 03:45:10;;;;;;;4.37;2.20;;;;;;;8.90;56.73;96485.22;5048393;28;20381;-72
2023/11/12 03:47:36;;;;;;;1.90;1.70;;;;;;;8.88;56.17;96478.50;5021610;28;20253;-72
2023/11/12 03:50:03;;;;;;;2.47;2.00;;;;;;;8.81;57.05;96465.25;5048145;28;20194;-71
2023/11/12 03:52:28;;;;;;;2.33;2.13;;;;;;;8.80;56.87;96462.81;5043114;28;20193;-73
2023/11/12 03:54:54;;;;;;;2.10;1.90;;;;;;;8.86;56.45;96462.16;5039330;28;20422;-72
2023/11/12 03:57:20;;;;;;;3.40;2.40;;;;;;;8.83;56.30;96457.25;5048055;28;20708;-71
2023/11/12 03:59:51;;;;;;;3.00;2.60;;;;;;;8.82;56.79;96460.88;5042940;28;20206;-72
2023/11/12 04:02:16;;;;;;;3.03;2.50;;;;;;;8.75;56.60;96453.66;5047657;28;20429;-71
2023/11/12 04:04:42;;;;;;;2.23;2.03;;;;;;;8.67;56.28;96445.81;5047519;28;20453;-72
2023/11/12 04:07:08;;;;;;;2.60;1.90;;;;;;;8.64;56.12;96448.72;5047497;28;20892;-71
2023/11/12 04:09:33;;;;;;;1.97;1.67;;;;;;;8.64;56.17;96448.72;5033580;28;20429;-72
2023/11/12 04:11:59;;;;;;;2.10;1.47;;;;;;;8.56;56.99;96456.56;5043669;28;20197;-72
2023/11/12 04:14:24;;;;;;;1.80;1.50;;;;;;;8.50;56.87;96454.56;5047383;28;20221;-72
2023/11/12 04:16:49;;;;;;;1.80;1.70;;;;;;;8.53;56.73;96449.03;5044910;28;20235;-73
2023/11/12 04:19:15;;;;;;;1.90;1.70;;;;;;;8.59;56.84;96438.75;5037669;28;20274;-73
2023/11/12 04:21:40;;;;;;;2.53;1.80;;;;;;;8.56;56.93;96439.06;5029721;28;20178;-71
2023/11/12 04:24:06;;;;;;;2.00;1.50;;;;;;;8.54;57.42;96442.81;5047241;28;20179;-72
2023/11/12 04:26:32;;;;;;;1.90;1.80;;;;;;;8.55;57.24;96428.78;5034034;28;20549;-73
2023/11/12 04:28:58;;;;;;;3.07;2.33;;;;;;;8.55;57.10;96428.78;5046098;28;20425;-73
2023/11/12 04:31:23;;;;;;;3.43;2.50;;;;;;;8.59;56.63;96427.47;5043496;28;20203;-71
2023/11/12 04:33:49;;;;;;;4.33;2.50;;;;;;;8.53;56.85;96428.94;5043981;28;21024;-71
2023/11/12 04:36:14;;;;;;;4.40;2.93;;;;;;;8.57;56.74;96429.44;5043566;28;20262;-71
2023/11/12 04:38:40;;;;;;;3.00;2.17;;;;;;;8.54;56.35;96424.53;5050647;28;20843;-71
2023/11/12 04:41:08;;;;;;;2.27;1.70;;;;;;;8.51;56.85;96432.69;5050471;28;20699;-70
2023/11/12 04:43:33;;;;;;;2.90;1.57;;;;;;;8.53;56.68;96423.72;5042867;28;20438;-70
2023/11/12 04:45:58;;;;;;;2.33;2.13;;;;;;;8.53;56.32;96425.53;5050224;28;20559;-70
2023/11/12 04:48:24;;;;;;;3.03;2.53;;;;;;;8.53;56.67;96428.94;5044940;28;20187;-71
2023/11/12 04:50:49;;;;;;;2.37;1.70;;;;;;;8.41;56.80;96417.94;5048587;28;20723;-70
2023/11/12 04:53:15;;;;;;;2.20;2.00;;;;;;;8.41;57.41;96428.38;5050979;28;20689;-71
2023/11/12 04:55:40;;;;;;;5.83;2.27;;;;;;;8.46;56.73;96431.31;5050021;28;20640;-72
2023/11/12 04:58:07;;;;;;;4.00;2.00;;;;;;;8.45;57.23;96429.69;5050223;28;20175;-71
2023/11/12 05:00:32;;;;;;;2.20;1.70;;;;;;;8.42;57.29;96426.59;5050442;28;20211;-71
2023/11/12 05:02:58;;;;;;;1.90;1.63;;;;;;;8.37;57.33;96431.47;5046781;28;20918;-71
2023/11/12 05:05:23;;;;;;;1.83;1.53;;;;;;;8.35;57.33;96426.38;5050653;28;20246;-72
2023/11/12 05:07:49;;;;;;;1.87;1.70;;;;;;;8.39;57.55;96430.34;5031040;28;20553;-73
2023/11/12 05:10:15;;;;;;;4.10;2.20;;;;;;;8.40;57.00;96436.34;5050196;28;20237;-72
2023/11/12 05:12:40;;;;;;;5.40;3.50;;;;;;;8.43;56.93;96434.28;5023899;28;20215;-72
2023/11/12 05:15:07;;;;;;;7.40;3.90;;;;;;;8.37;56.76;96440.13;5046365;28;20214;-73
2023/11/12 05:17:32;;;;;;;4.00;3.30;;;;;;;8.32;56.46;96434.53;5050798;28;20197;-73
2023/11/12 05:19:58;;;;;;;6.17;4.07;;;;;;;8.32;56.77;96429.31;5041578;28;20446;-73
2023/11/12 05:22:24;;;;;;;3.73;2.33;;;;;;;8.31;56.77;96432.91;5049943;28;20759;-72
2023/11/12 05:24:51;;;;;;;3.13;1.67;;;;;;;8.20;57.72;96436.63;5047376;28;20663;-71
2023/11/12 05:27:18;;;;;;;1.97;1.60;;;;;;;8.30;57.27;96441.72;5049913;28;20429;-72
2023/11/12 05:29:44;;;;;;;2.20;1.73;;;;;;;8.30;57.56;96449.56;5031853;28;20450;-72
2023/11/12 05:32:09;;;;;;;1.73;1.40;;;;;;;8.27;57.58;96448.06;5046263;28;20939;-72
2023/11/12 05:34:35;;;;;;;1.70;1.60;;;;;;;8.32;57.06;96449.38;5046433;28;20179;-73
2023/11/12 05:37:00;;;;;;;1.80;1.70;;;;;;;8.30;57.26;96447.75;5028126;28;20194;-72
2023/11/12 05:39:26;;;;;;;3.20;1.90;;;;;;;8.35;57.60;96449.88;5047768;28;20179;-73
2023/11/12 05:41:51;;;;;;;1.80;1.70;;;;;;;8.35;57.75;96457.72;5049008;28;20275;-72
2023/11/12 05:44:16;;;;;;;2.17;1.87;;;;;;;8.33;56.91;96470.09;5047627;28;20278;-73
2023/11/12 05:46:42;;;;;;;3.00;2.10;;;;;;;8.35;56.95;96465.56;5049204;28;20273;-72
2023/11/12 05:49:07;;;;;;;2.60;2.40;;;;;;;8.35;57.68;96464.75;5049780;28;20190;-71
2023/11/12 05:51:33;;;;;;;4.10;3.70;;;;;;;8.35;57.42;96476.00;5048822;28;20226;-72
2023/11/12 05:53:58;;;;;;;3.60;3.07;;;;;;;8.20;57.74;96470.56;5040795;28;20366;-73
2023/11/12 05:56:24;;;;;;;2.80;2.27;;;;;;;8.23;57.55;96470.25;5040753;28;20260;-72
2023/11/12 05:58:49;;;;;;;3.83;2.37;;;;;;;8.22;57.52;96468.59;5043730;28;20659;-73
2023/11/12 06:01:14;;;;;;;2.13;1.93;;;;;;;8.24;58.12;96465.84;5049627;28;20311;-73
2023/11/12 06:03:40;;;;;;;3.47;1.63;;;;;;;8.22;57.92;96473.00;5041915;28;20200;-70
2023/11/12 06:06:05;;;;;;;3.40;1.80;;;;;;;8.24;57.57;96474.50;5047657;28;20242;-73
2023/11/12 06:08:31;;;;;;;5.63;2.10;;;;;;;8.19;58.07;96470.72;5043874;28;20185;-72
2023/11/12 06:10:56;;;;;;;1.70;1.60;;;;;;;8.20;57.16;96472.31;5044266;28;20218;-72
2023/11/12 06:13:22;;;;;;;7.63;5.50;;;;;;;8.21;57.52;96471.34;5049853;28;20178;-71
2023/11/12 06:15:47;;;;;;;33.23;17.13;;;;;;;8.23;57.51;96487.69;5033994;28;20708;-72
2023/11/12 06:18:13;;;;;;;131.47;53.20;;;;;;;8.24;57.95;96491.94;5029201;28;20198;-71
2023/11/12 06:20:38;;;;;;;82.80;34.53;;;;;;;8.24;57.58;96486.72;5049051;28;20624;-72
2023/11/12 06:23:04;;;;;;;15.80;8.30;;;;;;;8.22;57.49;96486.03;5049297;28;20230;-70
2023/11/12 06:25:29;;;;;;;10.80;4.20;;;;;;;8.19;57.45;96486.38;5048841;28;20203;-72
2023/11/12 06:27:55;;;;;;;8.40;4.80;;;;;;;8.17;58.04;96493.53;5045242;28;20187;-73
2023/11/12 06:30:20;;;;;;;13.20;7.00;;;;;;;8.23;57.58;96498.13;5048593;28;20198;-72
2023/11/12 06:32:46;;;;;;;6.03;4.63;;;;;;;8.27;56.76;96497.66;5041083;28;20180;-72
2023/11/12 06:35:12;;;;;;;6.30;3.90;;;;;;;8.27;57.39;96509.91;5040702;28;20205;-75
2023/11/12 06:37:38;;;;;;;7.30;5.23;;;;;;;8.27;57.60;96515.13;5049148;28;20217;-72
2023/11/12 06:40:03;;;;;;;8.87;5.33;;;;;;;8.26;57.48;96514.28;5038303;28;20437;-74
2023/11/12 06:42:31;;;;;;;9.80;5.40;;;;;;;8.23;57.07;96513.78;5045138;28;20197;-73
2023/11/12 06:44:56;;;;;;;8.07;4.63;;;;;;;8.23;57.07;96525.06;5048306;28;20701;-73
2023/11/12 06:47:22;;;;;;;10.87;5.20;;;;;;;8.26;57.55;96523.94;5044410;28;20436;-71
2023/11/12 06:49:47;;;;;;;5.83;4.10;;;;;;;8.24;57.22;96523.25;5023165;28;20684;-72
2023/11/12 06:52:14;;;;;;;6.30;4.00;;;;;;;8.27;57.46;96525.56;5025979;28;20217;-72
2023/11/12 06:54:40;;;;;;;5.93;3.60;;;;;;;8.24;57.92;96528.47;5040135;28;20190;-72
2023/11/12 06:57:06;;;;;;;4.50;3.23;;;;;;;8.26;57.71;96529.97;5048742;28;21183;-72
2023/11/12 06:59:31;;;;;;;5.40;3.40;;;;;;;8.26;57.74;96534.38;5049355;28;20417;-72
2023/11/12 07:01:57;;;;;;;68.73;36.07;;;;;;;8.36;57.41;96535.09;5047782;28;20561;-72
2023/11/12 07:04:22;;;;;;;122.63;66.30;;;;;;;8.30;56.78;96530.50;5042928;28;20210;-73
2023/11/12 07:06:48;;;;;;;111.03;60.33;;;;;;;8.30;57.67;96543.53;5047944;28;20226;-72
2023/11/12 07:09:13;;;;;;;73.87;42.80;;;;;;;8.28;57.83;96537.66;5039321;28;20194;-73
2023/11/12 07:11:39;;;;;;;56.70;35.97;;;;;;;8.35;57.04;96541.28;5022438;28;20287;-72
2023/11/12 07:14:05;;;;;;;62.37;35.00;;;;;;;8.42;56.82;96544.91;5014934;28;20214;-72
2023/11/12 07:16:30;;;;;;;44.57;30.50;;;;;;;8.39;57.07;96537.38;5039842;28;20534;-71
2023/11/12 07:18:56;;;;;;;38.63;25.90;;;;;;;8.39;57.39;96540.00;5048290;28;20430;-72
2023/11/12 07:21:25;;;;;;;145.73;95.53;;;;;;;8.37;57.42;96541.94;5044491;28;20207;-73
2023/11/12 07:23:51;;;;;;;111.40;71.30;;;;;;;8.38;57.60;96543.59;5027299;28;20183;-74
2023/11/12 07:26:16;;;;;;;76.40;51.87;;;;;;;8.40;57.62;96548.63;5040255;28;20461;-72
2023/11/12 07:28:42;;;;;;;22.23;16.53;;;;;;;8.38;57.58;96543.59;5048266;28;20571;-73
2023/11/12 07:31:08;;;;;;;10.70;8.60;;;;;;;8.41;57.51;96543.28;5022060;28;20364;-70
2023/11/12 07:33:34;;;;;;;19.43;14.33;;;;;;;8.42;57.76;96544.09;5030494;28;20187;-73
2023/11/12 07:35:59;;;;;;;12.23;9.40;;;;;;;8.42;57.34;96550.16;5047715;28;20431;-73
2023/11/12 07:38:24;;;;;;;6.23;5.20;;;;;;;8.35;58.08;96550.91;5048395;28;20536;-73
2023/11/12 07:40:50;;;;;;;6.13;5.20;;;;;;;8.42;57.92;96557.97;5022362;28;20206;-73
2023/11/12 07:43:15;;;;;;;10.77;7.37;;;;;;;8.42;57.76;96555.38;5044713;28;20209;-71
2023/11/12 07:45:41;;;;;;;10.53;7.67;;;;;;;8.48;57.77;96567.00;5040541;28;20565;-72
2023/11/12 07:48:07;;;;;;;7.63;5.47;;;;;;;8.52;57.79;96565.72;5045861;28;20582;-73
2023/11/12 07:50:32;;;;;;;6.50;5.10;;;;;;;8.56;57.54;96571.47;5040350;28;20214;-72
2023/11/12 07:52:58;;;;;;;6.40;4.67;;;;;;;8.57;57.64;96568.69;5042231;28;20804;-72
2023/11/12 07:55:25;;;;;;;4.80;4.20;;;;;;;8.49;57.99;96563.44;5045399;28;20281;-72
2023/11/12 07:57:50;;;;;;;8.10;3.97;;;;;;;8.56;57.50;96566.25;5047454;28;20274;-70
2023/11/12 08:00:16;;;;;;;7.10;4.27;;;;;;;8.56;57.91;96561.81;5044751;28;20521;-72
2023/11/12 08:02:42;;;;;;;4.20;3.33;;;;;;;8.63;58.04;96558.59;5046189;28;20517;-72
2023/11/12 08:05:08;;;;;;;4.33;3.60;;;;;;;8.66;57.43;96566.94;5042010;28;20241;-72
2023/11/12 08:07:37;;;;;;;7.40;3.80;;;;;;;8.64;57.44;96574.13;5047358;28;20183;-71
2023/11/12 08:10:07;;;;;;;5.80;5.20;;;;;;;8.67;57.81;96578.19;5046696;28;20433;-71
2023/11/12 08:12:32;;;;;;;6.10;5.50;;;;;;;8.74;58.23;96572.19;5045590;28;20417;-71
2023/11/12 08:14:58;;;;;;;5.10;4.23;;;;;;;8.78;58.13;96574.50;5046332;28;20521;-72
2023/11/12 08:17:23;;;;;;;6.07;4.30;;;;;;;8.81;57.73;96569.78;5043346;28;20192;-73
2023/11/12 08:19:48;;;;;;;4.50;4.10;;;;;;;8.89;57.98;96574.22;5042852;28;20274;-72
2023/11/12 08:22:14;;;;;;;7.03;4.80;;;;;;;8.94;57.58;96566.75;5044853;28;20187;-72
2023/11/12 08:24:40;;;;;;;12.50;4.67;;;;;;;9.01;57.17;96565.13;5047730;28;20211;-72
2023/11/12 08:27:07;;;;;;;7.33;4.00;;;;;;;8.99;57.39;96556.63;5038493;28;20657;-73
2023/11/12 08:29:34;;;;;;;8.43;4.50;;;;;;;9.10;57.18;96568.59;5043654;28;20179;-73
2023/11/12 08:32:00;;;;;;;5.00;3.57;;;;;;;9.24;57.32;96569.75;5046978;28;20853;-73
2023/11/12 08:34:25;;;;;;;6.27;4.10;;;;;;;9.48;57.20;96562.94;5046119;28;20569;-72
2023/11/12 08:36:51;;;;;;;7.07;4.13;;;;;;;9.68;56.82;96571.31;5046935;28;20175;-72
2023/11/12 08:39:16;;;;;;;5.20;4.40;;;;;;;9.94;56.31;96572.97;5047315;28;20201;-72
2023/11/12 08:41:45;;;;;;;4.63;3.37;;;;;;;10.11;54.65;96576.41;5047282;28;20203;-72
2023/11/12 08:44:11;;;;;;;4.77;3.50;;;;;;;10.27;54.05;96571.16;5046928;28;20191;-72
2023/11/12 08:46:36;;;;;;;5.10;3.73;;;;;;;10.45;53.58;96568.38;5047183;28;20489;-70
2023/11/12 08:49:04;;;;;;;5.50;3.60;;;;;;;10.48;53.29;96577.69;5046574;28;20506;-70
2023/11/12 08:51:30;;;;;;;3.90;3.20;;;;;;;10.52;52.69;96583.44;5038452;28;20207;-73
2023/11/12 08:53:55;;;;;;;4.97;3.90;;;;;;;10.58;53.69;96575.72;5048088;28;20484;-72
2023/11/12 08:56:21;;;;;;;4.27;3.50;;;;;;;10.85;52.72;96575.47;5046868;28;20187;-71
2023/11/12 08:58:46;;;;;;;4.07;3.00;;;;;;;11.02;52.02;96574.44;5047630;28;20186;-73
2023/11/12 09:01:12;;;;;;;8.60;3.10;;;;;;;11.10;52.04;96573.56;5046729;28;20210;-73
2023/11/12 09:03:38;;;;;;;4.50;2.87;;;;;;;11.36;51.03;96580.31;5047229;28;20278;-73
2023/11/12 09:06:05;;;;;;;4.10;3.37;;;;;;;11.28;50.64;96578.53;5043057;28;20210;-73
2023/11/12 09:08:30;;;;;;;4.10;3.50;;;;;;;11.28;49.86;96572.50;5046751;28;21056;-73
2023/11/12 09:10:56;;;;;;;6.10;2.90;;;;;;;11.12;50.39;96582.06;5046946;28;20522;-71
2023/11/12 09:13:21;;;;;;;3.40;3.03;;;;;;;11.10;51.37;96580.63;5039688;28;20187;-73
2023/11/12 09:15:48;;;;;;;4.97;3.50;;;;;;;11.15;51.21;96584.34;5040142;28;20283;-73
2023/11/12 09:18:13;;;;;;;3.70;2.93;;;;;;;11.09;51.07;96587.66;5045457;28;21012;-72
2023/11/12 09:20:39;;;;;;;5.27;3.50;;;;;;;11.20;51.21;96592.53;5050837;28;20210;-72
2023/11/12 09:23:05;;;;;;;3.07;2.80;;;;;;;10.96;51.00;96592.66;5039451;28;20188;-71
2023/11/12 09:25:31;;;;;;;5.40;4.57;;;;;;;10.98;51.43;96595.88;5047860;28;20242;-71
2023/11/12 09:27:57;;;;;;;3.50;3.20;;;;;;;10.76;51.54;96598.25;5046543;28;20874;-73
2023/11/12 09:30:23;;;;;;;3.10;2.80;;;;;;;10.59;51.54;96600.13;5050192;28;20469;-71
2023/11/12 09:32:49;;;;;;;4.30;3.20;;;;;;;10.44;52.17;96597.38;5044265;28;20226;-72
2023/11/12 09:35:14;;;;;;;5.47;4.10;;;;;;;10.57;52.69;96596.84;5039989;28;20468;-73
2023/11/12 09:37:41;;;;;;;3.77;3.43;;;;;;;10.59;52.65;96598.28;5046672;28;20249;-72
2023/11/12 09:40:10;;;;;;;4.47;3.20;;;;;;;10.65;52.00;96599.44;5043552;28;20265;-73
2023/11/12 09:42:37;;;;;;;4.20;3.40;;;;;;;10.45;52.54;96599.00;5031530;28;20418;-72
2023/11/12 09:45:05;;;;;;;5.70;3.60;;;;;;;10.49;53.02;96604.72;5041368;28;20462;-73
2023/11/12 09:47:53;;;;;;;5.67;3.67;;;;;;;10.45;53.09;96594.56;5048198;28;20452;-72
2023/11/12 09:50:20;;;;;;;5.47;3.80;;;;;;;10.61;52.69;96608.63;5028957;28;20445;-72
2023/11/12 09:52:46;;;;;;;4.20;3.60;;;;;;;10.60;52.50;96602.56;5043572;28;20426;-72
2023/11/12 09:55:12;;;;;;;4.00;3.60;;;;;;;10.63;53.03;96600.59;5048458;28;20425;-71
2023/11/12 09:57:37;;;;;;;3.63;3.33;;;;;;;10.79;52.67;96599.72;5027623;28;20422;-71
2023/11/12 10:00:06;;;;;;;3.77;3.30;;;;;;;10.94;52.23;96607.72;5032221;28;20727;-72
2023/11/12 10:02:32;;;;;;;4.13;3.13;;;;;;;10.97;52.04;96610.81;5047238;28;20202;-70
2023/11/12 10:04:59;;;;;;;9.10;3.80;;;;;;;11.03;51.79;96607.50;5047756;28;20462;-71
2023/11/12 10:07:27;;;;;;;4.10;2.70;;;;;;;11.05;51.11;96616.03;5024503;28;20943;-72
2023/11/12 10:09:54;;;;;;;2.37;2.10;;;;;;;11.08;50.40;96609.66;5039327;28;20520;-72
2023/11/12 10:12:20;;;;;;;5.20;2.77;;;;;;;11.01;50.53;96614.75;5046621;28;20461;-73
2023/11/12 10:14:46;;;;;;;2.77;2.50;;;;;;;10.99;50.36;96608.03;5045837;28;20468;-73
2023/11/12 10:17:11;;;;;;;2.67;2.47;;;;;;;11.07;50.64;96613.25;5037863;28;20469;-73
2023/11/12 10:19:37;;;;;;;3.47;2.67;;;;;;;11.09;50.16;96616.50;5043248;28;20541;-72
2023/11/12 10:22:06;;;;;;;3.00;2.67;;;;;;;11.02;50.63;96608.53;5036676;28;20240;-72
2023/11/12 10:24:42;;;;;;;5.30;2.47;;;;;;;11.05;50.39;96621.28;5049632;28;20229;-72
2023/11/12 10:27:11;;;;;;;3.87;2.30;;;;;;;11.13;50.84;96614.38;5046806;28;20434;-74
2023/11/12 10:29:37;;;;;;;3.70;2.30;;;;;;;11.09;50.23;96616.50;5041632;28;20417;-72
2023/11/12 10:32:02;;;;;;;3.83;2.47;;;;;;;11.15;50.41;96615.03;5050506;28;20449;-72
2023/11/12 10:34:28;;;;;;;3.03;2.20;;;;;;;11.06;50.63;96616.84;5050518;28;20172;-72
2023/11/12 10:37:19;;;;;;;3.50;2.33;;;;;;;11.04;50.69;96611.75;5047735;28;20189;-73
2023/11/12 10:39:46;;;;;;;5.80;2.40;;;;;;;11.11;50.67;96611.09;5033424;28;20882;-71
2023/11/12 10:42:20;;;;;;;3.03;2.23;;;;;;;11.02;50.67;96611.13;5045934;28;20505;-70
2023/11/12 10:44:47;;;;;;;4.00;2.30;;;;;;;11.09;50.57;96613.06;5043237;28;20479;-72
2023/11/12 10:47:16;;;;;;;3.50;2.30;;;;;;;11.06;50.75;96612.41;5043452;28;20434;-73
2023/11/12 10:49:42;;;;;;;2.57;2.37;;;;;;;11.08;50.83;96614.88;5045114;28;20465;-71
2023/11/12 10:52:09;;;;;;;4.27;2.97;;;;;;;11.11;50.96;96603.22;5048956;28;20429;-71
2023/11/12 10:54:34;;;;;;;2.60;2.40;;;;;;;10.99;51.00;96610.63;5025453;28;20433;-72
2023/11/12 10:57:00;;;;;;;6.40;2.77;;;;;;;11.00;51.08;96604.41;5048998;28;20426;-73
2023/11/12 10:59:26;;;;;;;4.90;3.10;;;;;;;11.07;51.20;96602.75;5029926;28;20244;-73
2023/11/12 11:01:52;;;;;;;2.70;2.50;;;;;;;11.08;51.54;96604.41;5031253;28;20461;-71
2023/11/12 11:04:20;;;;;;;6.27;2.43;;;;;;;11.12;51.56;96607.50;5030835;28;20521;-72
2023/11/12 11:06:45;;;;;;;2.47;2.27;;;;;;;11.14;51.15;96603.69;5030779;28;20393;-71
2023/11/12 11:09:12;;;;;;;3.20;2.63;;;;;;;11.19;51.09;96603.19;5046256;28;20443;-72
2023/11/12 11:11:37;;;;;;;5.00;2.80;;;;;;;11.16;51.74;96606.16;5030461;28;20253;-72
2023/11/12 11:14:27;;;;;;;7.50;4.00;;;;;;;11.20;50.97;96602.19;5031059;28;20449;-72
2023/11/12 11:16:53;;;;;;;8.67;3.23;;;;;;;11.25;50.74;96601.69;5047695;28;20202;-72
2023/11/12 11:19:44;;;;;;;3.00;2.60;;;;;;;11.04;51.45;96609.13;5048214;28;20417;-73
2023/11/12 11:22:29;;;;;;;6.90;4.13;;;;;;;11.13;51.57;96601.25;5044876;28;20459;-70
2023/11/12 11:25:22;;;;;;;2.60;2.40;;;;;;;11.06;50.68;96598.50;5019005;28;20870;-72
2023/11/12 11:27:47;;;;;;;3.97;2.90;;;;;;;10.98;51.13;96593.28;5037762;28;20422;-73
2023/11/12 11:30:14;;;;;;;3.80;2.73;;;;;;;10.90;51.36;96592.31;5043727;28;20442;-71
2023/11/12 11:33:02;;;;;;;3.20;2.90;;;;;;;10.89;51.38;96595.13;5045016;28;20180;-73
2023/11/12 11:35:28;;;;;;;3.40;2.70;;;;;;;10.84;51.27;96598.22;5047913;28;20418;-72